createdAt,value
2022-11-21T00:00:13.875Z,99476.19
2022-11-21T00:01:21.096Z,99479.70
2022-11-21T00:02:23.856Z,99484.23
2022-11-21T00:03:26.386Z,99484.23
2022-11-21T00:04:29.316Z,99477.03
2022-11-21T00:05:33.045Z,99486.91
2022-11-21T00:06:36.540Z,99480.70
2022-11-21T00:07:38.823Z,99476.31
2022-11-21T00:08:40.863Z,99477.52
2022-11-21T00:09:43.879Z,99480.44
2022-11-21T00:10:46.147Z,99482.61
2022-11-21T00:11:50.784Z,99485.66
2022-11-21T00:12:54.945Z,99485.14
2022-11-21T00:13:57.366Z,99479.27
2022-11-21T00:14:59.340Z,99472.56
2022-11-21T00:17:19.296Z,99467.20
2022-11-21T00:18:21.268Z,99471.89
2022-11-21T00:20:26.840Z,99453.84
2022-11-21T00:21:28.910Z,99452.36
2022-11-21T00:22:31.439Z,99465.98
2022-11-21T00:23:33.504Z,99467.18
2022-11-21T00:24:35.611Z,99466.54
2022-11-21T00:25:37.889Z,99460.58
2022-11-21T00:26:40.085Z,99454.59
2022-11-21T00:27:42.671Z,99451.28
2022-11-21T00:28:45.394Z,99451.63
2022-11-21T00:29:47.527Z,99451.86
2022-11-21T00:30:50.496Z,99454.66
2022-11-21T00:31:53.202Z,99449.42
2022-11-21T00:32:57.773Z,99448.44
2022-11-21T00:34:00.437Z,99463.64
2022-11-21T00:35:03.094Z,99459.13
2022-11-21T00:36:08.730Z,99461.73
2022-11-21T00:37:11.486Z,99461.61
2022-11-21T00:38:13.630Z,99451.75
2022-11-21T00:39:15.782Z,99445.44
2022-11-21T00:40:19.846Z,99440.92
2022-11-21T00:41:22.960Z,99443.60
2022-11-21T00:42:25.109Z,99437.30
2022-11-21T00:43:27.271Z,99447.88
2022-11-21T00:44:29.773Z,99436.34
2022-11-21T00:45:32.617Z,99437.90
2022-11-21T00:46:34.809Z,99437.90
2022-11-21T00:47:36.891Z,99431.59
2022-11-21T00:48:39.017Z,99422.72
2022-11-21T00:49:41.241Z,99417.37
2022-11-21T00:50:43.427Z,99419.08
2022-11-21T00:51:47.718Z,99415.41
2022-11-21T00:52:55.041Z,99398.41
2022-11-21T00:53:57.797Z,99401.92
2022-11-21T00:55:00.825Z,99405.47
2022-11-21T00:56:03.551Z,99409.10
2022-11-21T00:57:06.689Z,99414.34
2022-11-21T00:58:08.828Z,99421.52
2022-11-21T00:59:11.013Z,99415.17
2022-11-21T01:00:16.189Z,99423.20
2022-11-21T01:01:18.264Z,99424.92
2022-11-21T01:02:20.552Z,99424.92
2022-11-21T01:03:22.635Z,99421.41
2022-11-21T01:04:24.954Z,99426.64
2022-11-21T01:05:27.319Z,99422.13
2022-11-21T01:06:29.758Z,99418.61
2022-11-21T01:07:31.971Z,99421.16
2022-11-21T01:08:35.775Z,99421.16
2022-11-21T01:09:37.918Z,99424.69
2022-11-21T01:10:40.501Z,99427.36
2022-11-21T01:11:43.166Z,99426.40
2022-11-21T01:12:49.818Z,99418.38
2022-11-21T01:13:52.589Z,99419.25
2022-11-21T01:14:56.153Z,99418.38
2022-11-21T01:17:18.429Z,99413.05
2022-11-21T01:18:20.738Z,99421.80
2022-11-21T01:19:22.818Z,99420.09
2022-11-21T01:20:25.011Z,99408.54
2022-11-21T01:21:29.328Z,99413.77
2022-11-21T01:22:32.179Z,99413.77
2022-11-21T01:23:34.537Z,99417.29
2022-11-21T01:24:36.614Z,99412.78
2022-11-21T01:25:38.967Z,99412.78
2022-11-21T01:26:41.283Z,99419.97
2022-11-21T01:27:43.891Z,99419.01
2022-11-21T01:28:47.060Z,99400.59
2022-11-21T01:29:49.696Z,99400.59
2022-11-21T01:30:51.966Z,99407.34
2022-11-21T01:31:54.066Z,99404.66
2022-11-21T01:32:57.949Z,99410.86
2022-11-21T01:34:02.419Z,99406.34
2022-11-21T01:35:05.361Z,99410.86
2022-11-21T01:36:11.269Z,99409.02
2022-11-21T01:37:14.035Z,99407.22
2022-11-21T01:38:16.117Z,99404.55
2022-11-21T01:39:18.192Z,99411.70
2022-11-21T01:40:21.667Z,99421.44
2022-11-21T01:42:52.287Z,99421.59
2022-11-21T01:43:54.726Z,99412.57
2022-11-21T01:44:56.718Z,99401.87
2022-11-21T01:46:10.351Z,99401.87
2022-11-21T01:47:12.540Z,99394.68
2022-11-21T01:48:14.651Z,99401.75
2022-11-21T01:49:26.452Z,99410.62
2022-11-21T01:50:29.380Z,99396.39
2022-11-21T01:51:46.254Z,99399.07
2022-11-21T01:52:48.857Z,99397.23
2022-11-21T01:54:04.252Z,99395.52
2022-11-21T01:55:07.021Z,99395.52
2022-11-21T01:56:09.851Z,99390.17
2022-11-21T01:57:21.626Z,99391.04
2022-11-21T01:58:24.946Z,99376.78
2022-11-21T01:59:48.650Z,99380.45
2022-11-21T02:00:51.067Z,99377.78
2022-11-21T02:01:53.511Z,99380.45
2022-11-21T02:02:58.140Z,99377.78
2022-11-21T02:04:00.312Z,99383.13
2022-11-21T02:05:02.825Z,99385.93
2022-11-21T02:06:06.011Z,99391.28
2022-11-21T02:07:08.242Z,99394.80
2022-11-21T02:08:13.482Z,99392.13
2022-11-21T02:09:16.077Z,99396.52
2022-11-21T02:10:19.987Z,99396.64
2022-11-21T02:11:38.110Z,99396.64
2022-11-21T02:12:52.160Z,99400.99
2022-11-21T02:13:55.023Z,99402.83
2022-11-21T02:14:57.184Z,99411.70
2022-11-21T02:15:59.155Z,99410.86
2022-11-21T02:17:04.889Z,99411.70
2022-11-21T02:18:08.951Z,99425.08
2022-11-21T02:19:24.180Z,99420.72
2022-11-21T02:20:27.961Z,99420.60
2022-11-21T02:21:42.835Z,99428.75
2022-11-21T02:23:03.519Z,99429.59
2022-11-21T02:24:39.016Z,99428.63
2022-11-21T02:25:41.383Z,99430.44
2022-11-21T02:26:44.460Z,99415.38
2022-11-21T02:27:48.467Z,99410.98
2022-11-21T02:28:50.746Z,99407.43
2022-11-21T02:29:53.737Z,99399.40
2022-11-21T02:30:56.567Z,99404.75
2022-11-21T02:31:59.965Z,99402.08
2022-11-21T02:33:02.486Z,99399.40
2022-11-21T02:34:06.022Z,99398.44
2022-11-21T02:35:08.433Z,99396.72
2022-11-21T02:36:46.773Z,99400.27
2022-11-21T02:37:57.639Z,99404.66
2022-11-21T02:39:00.318Z,99413.53
2022-11-21T02:40:06.766Z,99410.02
2022-11-21T02:41:19.165Z,99403.79
2022-11-21T02:42:32.898Z,99409.14
2022-11-21T02:45:13.482Z,99416.48
2022-11-21T02:46:17.250Z,99421.80
2022-11-21T02:47:20.848Z,99423.60
2022-11-21T02:48:23.852Z,99427.16
2022-11-21T02:51:10.129Z,99420.13
2022-11-21T02:52:12.682Z,99420.09
2022-11-21T02:53:17.779Z,99419.25
2022-11-21T02:54:19.895Z,99414.73
2022-11-21T02:55:23.052Z,99417.41
2022-11-21T02:56:25.738Z,99415.58
2022-11-21T02:57:28.290Z,99408.54
2022-11-21T02:58:31.381Z,99406.70
2022-11-21T02:59:33.464Z,99404.75
2022-11-21T03:00:38.179Z,99408.42
2022-11-21T03:01:41.018Z,99404.75
2022-11-21T03:02:43.195Z,99401.11
2022-11-21T03:03:45.614Z,99401.11
2022-11-21T03:04:47.691Z,99400.27
2022-11-21T03:05:49.833Z,99402.83
2022-11-21T03:06:52.229Z,99407.34
2022-11-21T03:07:54.312Z,99412.57
2022-11-21T03:08:57.335Z,99411.70
2022-11-21T03:09:59.505Z,99412.57
2022-11-21T03:11:02.401Z,99408.06
2022-11-21T03:12:08.310Z,99412.45
2022-11-21T03:13:11.008Z,99417.80
2022-11-21T03:14:13.594Z,99409.78
2022-11-21T03:15:15.812Z,99411.46
2022-11-21T03:16:18.679Z,99406.11
2022-11-21T03:17:21.373Z,99405.27
2022-11-21T03:18:24.051Z,99405.27
2022-11-21T03:19:27.201Z,99406.11
2022-11-21T03:20:30.648Z,99406.98
2022-11-21T03:21:32.774Z,99406.98
2022-11-21T03:22:36.264Z,99401.63
2022-11-21T03:23:38.341Z,99396.27
2022-11-21T03:24:40.460Z,99396.27
2022-11-21T03:25:42.809Z,99406.98
2022-11-21T03:26:46.344Z,99407.83
2022-11-21T03:27:52.718Z,99412.34
2022-11-21T03:28:54.860Z,99412.34
2022-11-21T03:29:56.883Z,99417.69
2022-11-21T03:30:59.524Z,99412.34
2022-11-21T03:32:01.991Z,99417.69
2022-11-21T03:33:04.576Z,99423.88
2022-11-21T03:34:07.617Z,99421.20
2022-11-21T03:35:10.220Z,99423.04
2022-11-21T03:36:14.917Z,99420.36
2022-11-21T03:37:17.131Z,99423.04
2022-11-21T03:38:20.459Z,99423.88
2022-11-21T03:39:23.397Z,99417.69
2022-11-21T03:40:26.408Z,99414.05
2022-11-21T03:41:29.009Z,99410.50
2022-11-21T03:42:31.093Z,99410.50
2022-11-21T03:43:33.243Z,99419.41
2022-11-21T03:44:36.239Z,99424.75
2022-11-21T03:45:38.838Z,99429.23
2022-11-21T03:46:43.318Z,99426.56
2022-11-21T03:47:47.013Z,99430.95
2022-11-21T03:48:49.071Z,99429.11
2022-11-21T03:49:51.042Z,99428.16
2022-11-21T03:50:54.275Z,99423.64
2022-11-21T03:51:57.525Z,99421.95
2022-11-21T03:52:59.641Z,99419.16
2022-11-21T03:54:02.211Z,99418.29
2022-11-21T03:55:05.641Z,99419.16
2022-11-21T03:56:09.939Z,99417.33
2022-11-21T03:57:12.462Z,99412.84
2022-11-21T03:58:14.537Z,99417.20
2022-11-21T03:59:18.500Z,99407.49
2022-11-21T04:00:21.785Z,99406.50
2022-11-21T04:01:24.949Z,99390.44
2022-11-21T04:02:29.022Z,99389.59
2022-11-21T04:03:32.254Z,99388.64
2022-11-21T04:04:35.396Z,99392.16
2022-11-21T04:05:38.674Z,99394.83
2022-11-21T04:06:40.918Z,99398.34
2022-11-21T04:07:43.071Z,99398.34
2022-11-21T04:08:45.889Z,99392.16
2022-11-21T04:09:48.978Z,99394.83
2022-11-21T04:10:52.837Z,99384.97
2022-11-21T04:11:54.985Z,99390.44
2022-11-21T04:12:57.897Z,99393.98
2022-11-21T04:14:01.932Z,99407.37
2022-11-21T04:15:09.377Z,99413.56
2022-11-21T04:16:10.110Z,99413.56
2022-11-21T04:17:12.934Z,99409.17
2022-11-21T04:18:16.908Z,99410.05
2022-11-21T04:19:20.130Z,99410.89
2022-11-21T04:20:23.107Z,99412.73
2022-11-21T04:21:25.349Z,99404.70
2022-11-21T04:22:27.886Z,99404.70
2022-11-21T04:23:30.219Z,99402.02
2022-11-21T04:24:33.471Z,99401.15
2022-11-21T04:25:35.971Z,99400.19
2022-11-21T04:26:38.518Z,99390.44
2022-11-21T04:27:41.979Z,99391.31
2022-11-21T04:28:44.499Z,99386.29
2022-11-21T04:29:47.563Z,99386.29
2022-11-21T04:30:52.419Z,99390.44
2022-11-21T04:31:53.889Z,99382.41
2022-11-21T04:32:55.968Z,99377.93
2022-11-21T04:33:58.263Z,99378.77
2022-11-21T04:35:00.437Z,99381.45
2022-11-21T04:36:02.871Z,99381.45
2022-11-21T04:37:11.233Z,99376.09
2022-11-21T04:38:11.193Z,99378.77
2022-11-21T04:39:13.452Z,99368.91
2022-11-21T04:40:16.105Z,99368.06
2022-11-21T04:41:18.428Z,99365.39
2022-11-21T04:42:20.525Z,99360.03
2022-11-21T04:43:23.305Z,99356.39
2022-11-21T04:44:26.639Z,99350.17
2022-11-21T04:45:29.536Z,99356.39
2022-11-21T04:46:31.922Z,99348.36
2022-11-21T04:47:38.030Z,99340.33
2022-11-21T04:48:40.092Z,99334.98
2022-11-21T04:49:43.153Z,99343.01
2022-11-21T04:50:45.571Z,99343.85
2022-11-21T04:52:53.577Z,99335.94
2022-11-21T04:53:55.695Z,99339.46
2022-11-21T04:54:57.684Z,99340.33
2022-11-21T04:56:05.279Z,99356.39
2022-11-21T06:16:22.674Z,99330.52
2022-11-21T06:17:25.941Z,99332.84
2022-11-21T06:18:30.452Z,99330.52
2022-11-21T06:19:32.508Z,99326.48
2022-11-21T06:20:35.021Z,99332.94
2022-11-21T06:21:37.417Z,99331.34
2022-11-21T06:22:40.395Z,99326.13
2022-11-21T06:23:43.298Z,99323.64
2022-11-21T06:24:45.415Z,99312.20
2022-11-21T06:25:47.495Z,99312.31
2022-11-21T06:26:50.194Z,99319.58
2022-11-21T06:27:53.422Z,99329.62
2022-11-21T06:28:55.592Z,99318.19
2022-11-21T06:29:57.668Z,99318.39
2022-11-21T06:32:08.688Z,99318.05
2022-11-21T06:34:13.329Z,99319.52
2022-11-21T06:36:19.062Z,99303.20
2022-11-21T06:37:21.134Z,99303.20
2022-11-21T06:38:24.255Z,99316.63
2022-11-21T06:39:26.399Z,99317.88
2022-11-21T06:40:29.034Z,99325.57
2022-11-21T06:41:31.244Z,99324.26
2022-11-21T06:42:33.331Z,99324.86
2022-11-21T06:43:36.381Z,99327.09
2022-11-21T06:44:39.553Z,99325.06
2022-11-21T06:45:42.210Z,99317.67
2022-11-21T06:46:50.756Z,99309.29
2022-11-21T06:51:59.070Z,99304.60
2022-11-21T06:54:03.384Z,99305.11
2022-11-21T06:55:06.262Z,99309.38
2022-11-21T06:56:09.322Z,99314.48
2022-11-21T06:57:11.404Z,99302.80
2022-11-21T06:58:14.551Z,99308.89
2022-11-21T06:59:17.281Z,99311.45
2022-11-21T07:00:19.780Z,99310.36
2022-11-21T07:01:22.404Z,99306.73
2022-11-21T07:02:25.100Z,99312.08
2022-11-21T07:03:27.225Z,99308.31
2022-11-21T07:04:30.954Z,99313.55
2022-11-21T07:08:41.483Z,99308.80
2022-11-21T07:09:43.696Z,99305.99
2022-11-21T07:11:10.231Z,99314.89
2022-11-21T07:11:50.615Z,99322.92
2022-11-21T07:12:58.085Z,99326.44
2022-11-21T07:14:08.807Z,99319.16
2022-11-21T07:15:09.918Z,99311.13
2022-11-21T07:16:13.423Z,99320.84
2022-11-21T07:17:15.820Z,99321.72
2022-11-21T07:18:19.188Z,99319.88
2022-11-21T07:19:21.318Z,99320.72
2022-11-21T07:20:24.533Z,99316.36
2022-11-21T07:21:26.861Z,99326.08
2022-11-21T07:22:29.087Z,99318.92
2022-11-21T07:23:31.397Z,99327.79
2022-11-21T07:24:33.856Z,99336.57
2022-11-21T07:25:37.044Z,99343.61
2022-11-21T07:26:39.621Z,99344.48
2022-11-21T07:27:41.699Z,99339.97
2022-11-21T07:28:45.421Z,99335.45
2022-11-21T07:29:48.106Z,99338.13
2022-11-21T07:30:50.361Z,99327.42
2022-11-21T07:31:54.177Z,99343.39
2022-11-21T07:32:58.219Z,99340.21
2022-11-21T07:34:00.349Z,99340.21
2022-11-21T07:35:03.100Z,99351.42
2022-11-21T07:36:06.551Z,99351.42
2022-11-21T07:37:08.680Z,99343.27
2022-11-21T07:38:10.952Z,99346.07
2022-11-21T07:39:13.684Z,99339.72
2022-11-21T07:40:17.113Z,99334.36
2022-11-21T07:41:20.188Z,99320.02
2022-11-21T07:42:22.311Z,99319.17
2022-11-21T07:43:25.009Z,99322.69
2022-11-21T07:44:27.089Z,99328.05
2022-11-21T07:45:30.300Z,99317.34
2022-11-21T07:46:32.617Z,99323.53
2022-11-21T07:47:35.276Z,99325.25
2022-11-21T07:48:37.824Z,99317.22
2022-11-21T07:49:40.932Z,99319.05
2022-11-21T07:50:43.789Z,99321.73
2022-11-21T07:51:47.188Z,99313.82
2022-11-21T07:52:49.327Z,99312.83
2022-11-21T07:53:51.905Z,99315.50
2022-11-21T07:54:54.860Z,99308.47
2022-11-21T07:55:58.965Z,99316.50
2022-11-21T07:57:01.640Z,99321.86
2022-11-21T07:58:08.292Z,99308.47
2022-11-21T07:59:10.814Z,99313.82
2022-11-21T08:00:16.727Z,99317.47
2022-11-21T08:01:19.394Z,99312.11
2022-11-21T08:02:23.381Z,99316.63
2022-11-21T08:03:25.525Z,99314.78
2022-11-21T08:04:31.452Z,99313.95
2022-11-21T08:05:42.091Z,99314.78
2022-11-21T08:06:47.127Z,99319.17
2022-11-21T08:07:49.447Z,99311.14
2022-11-21T08:10:06.284Z,99306.76
2022-11-21T08:11:08.657Z,99308.47
2022-11-21T08:12:11.875Z,99302.23
2022-11-21T08:13:15.053Z,99308.47
2022-11-21T08:14:17.938Z,99312.95
2022-11-21T08:15:20.136Z,99311.98
2022-11-21T08:16:22.761Z,99313.82
2022-11-21T08:17:27.583Z,99317.34
2022-11-21T08:18:30.135Z,99318.18
2022-11-21T08:19:39.353Z,99328.05
2022-11-21T08:20:41.870Z,99324.53
2022-11-21T08:21:44.161Z,99327.20
2022-11-21T08:22:46.306Z,99334.24
2022-11-21T08:23:48.407Z,99325.38
2022-11-21T08:24:50.381Z,99322.69
2022-11-21T08:25:52.394Z,99317.34
2022-11-21T08:26:56.074Z,99321.73
2022-11-21T08:27:59.187Z,99317.22
2022-11-21T08:29:01.615Z,99319.05
2022-11-21T08:30:08.124Z,99319.89
2022-11-21T08:31:10.408Z,99323.53
2022-11-21T08:32:13.064Z,99326.21
2022-11-21T08:33:16.797Z,99320.86
2022-11-21T08:34:19.522Z,99316.50
2022-11-21T08:35:22.342Z,99311.98
2022-11-21T08:36:25.672Z,99319.17
2022-11-21T08:37:28.635Z,99315.50
2022-11-21T08:38:30.838Z,99314.66
2022-11-21T08:39:33.722Z,99316.50
2022-11-21T08:40:36.966Z,99317.22
2022-11-21T08:41:39.731Z,99318.18
2022-11-21T08:42:42.924Z,99311.98
2022-11-21T08:43:45.041Z,99311.98
2022-11-21T08:44:47.156Z,99313.82
2022-11-21T08:45:49.339Z,99308.47
2022-11-21T08:46:51.634Z,99316.50
2022-11-21T08:47:54.555Z,99310.14
2022-11-21T08:48:57.611Z,99307.47
2022-11-21T08:50:04.331Z,99298.60
2022-11-21T08:51:04.176Z,99296.89
2022-11-21T08:52:07.404Z,99302.23
2022-11-21T08:53:09.976Z,99299.56
2022-11-21T08:54:13.712Z,99293.37
2022-11-21T08:55:17.402Z,99299.56
2022-11-21T08:56:20.232Z,99293.37
2022-11-21T08:57:22.914Z,99284.37
2022-11-21T08:58:25.275Z,99289.85
2022-11-21T08:59:27.491Z,99283.50
2022-11-21T09:00:31.658Z,99280.83
2022-11-21T09:01:35.031Z,99285.34
2022-11-21T09:02:37.348Z,99274.63
2022-11-21T09:03:39.583Z,99272.91
2022-11-21T09:04:41.803Z,99271.95
2022-11-21T09:05:44.349Z,99279.14
2022-11-21T09:06:48.048Z,99271.11
2022-11-21T09:07:56.862Z,99261.24
2022-11-21T09:09:00.814Z,99264.64
2022-11-21T09:10:03.986Z,99260.16
2022-11-21T09:11:07.578Z,99258.31
2022-11-21T09:12:09.751Z,99248.48
2022-11-21T09:13:13.011Z,99243.22
2022-11-21T09:14:15.469Z,99252.25
2022-11-21T09:15:17.597Z,99254.05
2022-11-21T09:16:20.915Z,99253.21
2022-11-21T09:17:23.092Z,99250.66
2022-11-21T09:18:25.280Z,99254.30
2022-11-21T09:19:28.257Z,99248.23
2022-11-21T09:20:32.062Z,99250.16
2022-11-21T09:21:34.428Z,99252.00
2022-11-21T09:22:36.890Z,99252.96
2022-11-21T09:23:38.996Z,99253.92
2022-11-21T09:24:41.210Z,99250.53
2022-11-21T09:25:44.055Z,99255.89
2022-11-21T09:26:46.991Z,99259.66
2022-11-21T09:27:50.257Z,99254.30
2022-11-21T09:28:52.473Z,99251.75
2022-11-21T09:29:55.022Z,99264.25
2022-11-21T09:30:57.205Z,99255.39
2022-11-21T09:32:00.462Z,99267.05
2022-11-21T09:33:05.400Z,99249.31
2022-11-21T09:34:09.131Z,99250.28
2022-11-21T09:35:12.863Z,99253.08
2022-11-21T09:36:15.113Z,99252.20
2022-11-21T09:37:17.114Z,99253.20
2022-11-21T09:38:23.820Z,99250.66
2022-11-21T09:39:23.286Z,99260.48
2022-11-21T09:40:26.067Z,99265.84
2022-11-21T09:41:52.544Z,99257.93
2022-11-21T09:43:32.193Z,99258.89
2022-11-21T09:47:47.274Z,99266.59
2022-11-21T09:49:01.166Z,99273.84
2022-11-21T09:50:05.730Z,99273.22
2022-11-21T09:51:11.280Z,99270.66
2022-11-21T09:52:14.512Z,99276.02
2022-11-21T09:53:20.921Z,99269.83
2022-11-21T09:54:27.148Z,99260.95
2022-11-21T09:55:37.180Z,99264.47
2022-11-21T09:56:41.339Z,99262.64
2022-11-21T09:57:44.105Z,99260.84
2022-11-21T09:58:52.759Z,99257.16
2022-11-21T09:59:54.866Z,99260.71
2022-11-21T10:00:58.606Z,99258.75
2022-11-21T10:02:03.027Z,99253.41
2022-11-21T10:03:05.186Z,99254.16
2022-11-21T10:04:08.232Z,99256.83
2022-11-21T10:05:14.768Z,99254.87
2022-11-21T10:06:30.466Z,99251.23
2022-11-21T10:07:39.534Z,99248.44
2022-11-21T10:08:49.531Z,99251.95
2022-11-21T10:10:05.190Z,99251.86
2022-11-21T10:11:30.867Z,99247.35
2022-11-21T10:12:46.710Z,99247.23
2022-11-21T10:14:09.119Z,99233.01
2022-11-21T10:15:42.578Z,99232.88
2022-11-21T10:17:04.598Z,99228.50
2022-11-21T11:50:35.260Z,99071.81
2022-11-21T11:51:40.690Z,99066.91
2022-11-21T11:52:49.380Z,99062.79
2022-11-21T11:54:01.212Z,99055.89
2022-11-21T11:55:08.236Z,99057.59
2022-11-21T11:56:27.408Z,99054.08
2022-11-21T11:57:30.950Z,99056.61
2022-11-21T11:58:40.032Z,99058.06
2022-11-21T11:59:46.983Z,99060.81
2022-11-21T12:00:56.884Z,99054.52
2022-11-21T12:02:22.359Z,99061.63
2022-11-21T12:03:28.334Z,99053.68
2022-11-21T12:04:33.947Z,99046.48
2022-11-21T12:05:37.034Z,99042.16
2022-11-21T12:08:05.775Z,99036.97
2022-11-21T12:10:06.809Z,99028.24
2022-11-21T12:11:29.191Z,99020.59
2022-11-21T12:12:35.049Z,99007.38
2022-11-21T12:13:37.234Z,99003.25
2022-11-21T12:16:10.144Z,98995.28
2022-11-21T12:17:08.579Z,98994.91
2022-11-21T12:18:21.375Z,98990.90
2022-11-21T12:19:23.509Z,98973.64
2022-11-21T12:21:39.928Z,98970.22
2022-11-21T12:22:42.046Z,98965.37
2022-11-21T12:23:55.813Z,98969.63
2022-11-21T12:24:57.980Z,98962.22
2022-11-21T12:26:21.888Z,98964.64
2022-11-21T12:29:15.923Z,98955.14
2022-11-21T12:30:36.676Z,98946.06
2022-11-21T12:32:07.254Z,98936.06
2022-11-21T12:35:00.529Z,98924.24
2022-11-21T12:36:22.149Z,98918.67
2022-11-21T12:37:34.269Z,98907.13
2022-11-21T12:38:52.195Z,98898.14
2022-11-21T12:40:27.347Z,98884.64
2022-11-21T12:41:33.837Z,98878.42
2022-11-21T12:42:45.202Z,98867.72
2022-11-21T12:43:56.093Z,98857.02
2022-11-21T12:45:01.024Z,98852.55
2022-11-21T12:46:23.282Z,98856.06
2022-11-21T12:47:32.344Z,98852.42
2022-11-21T12:48:39.355Z,98841.72
2022-11-21T12:51:23.619Z,98838.28
2022-11-21T12:52:44.169Z,98833.70
2022-11-21T12:53:55.507Z,98844.39
2022-11-21T12:56:59.923Z,98830.97
2022-11-21T12:59:23.820Z,98837.75
2022-11-21T13:00:48.464Z,98831.49
2022-11-21T13:03:32.245Z,98817.80
2022-11-21T13:04:35.673Z,98808.73
2022-11-21T13:05:45.187Z,98803.38
2022-11-21T13:06:47.551Z,98795.22
2022-11-21T13:07:54.323Z,98797.63
2022-11-21T13:08:58.443Z,98791.30
2022-11-21T13:10:02.069Z,98784.85
2022-11-21T13:11:08.579Z,98775.82
2022-11-21T13:12:18.663Z,98780.94
2022-11-21T13:13:24.494Z,98770.23
2022-11-21T13:14:55.139Z,98768.13
2022-11-21T13:17:37.452Z,98749.18
2022-11-21T13:18:43.711Z,98742.94
2022-11-21T13:20:23.588Z,98749.99
2022-11-21T13:23:00.177Z,98746.13
2022-11-21T13:24:03.020Z,98750.56
2022-11-21T13:25:39.669Z,98750.56
2022-11-21T13:26:45.403Z,98759.45
2022-11-21T13:27:49.669Z,98765.64
2022-11-21T13:29:09.504Z,98775.38
2022-11-21T13:30:16.223Z,98764.67
2022-11-21T13:32:47.767Z,98768.97
2022-11-21T13:33:50.792Z,98789.32
2022-11-21T13:34:54.311Z,98795.55
2022-11-21T13:35:56.599Z,98795.55
2022-11-21T13:37:00.627Z,98794.57
2022-11-21T13:39:19.792Z,98773.78
2022-11-21T13:40:32.036Z,98778.24
2022-11-21T13:41:38.085Z,98767.41
2022-11-21T13:43:30.878Z,98773.45
2022-11-21T13:44:28.636Z,98775.16
2022-11-21T13:47:09.704Z,98736.62
2022-11-21T13:48:30.715Z,98718.81
2022-11-21T13:50:00.434Z,98693.89
2022-11-21T13:51:24.431Z,98696.56
2022-11-21T13:52:45.413Z,98702.75
2022-11-21T13:55:31.312Z,98741.14
2022-11-21T13:58:22.657Z,98736.75
2022-11-21T13:59:31.516Z,98747.55
2022-11-21T14:00:58.861Z,98753.74
2022-11-21T14:02:10.586Z,98765.28
2022-11-21T14:03:40.667Z,98765.28
2022-11-21T14:05:10.273Z,98769.80
2022-11-21T14:06:20.420Z,98761.77
2022-11-21T14:07:25.461Z,98760.80
2022-11-21T14:08:27.864Z,98764.45
2022-11-21T14:09:36.415Z,98771.64
2022-11-21T14:10:38.724Z,98760.94
2022-11-21T14:13:09.668Z,98746.49
2022-11-21T14:14:12.619Z,98734.88
2022-11-21T14:15:21.348Z,98728.55
2022-11-21T14:16:36.355Z,98705.30
2022-11-21T14:17:58.182Z,98698.96
2022-11-21T14:19:00.428Z,98716.59
2022-11-21T14:20:21.080Z,98722.78
2022-11-21T14:21:28.538Z,98723.65
2022-11-21T14:22:35.612Z,98714.75
2022-11-21T14:23:38.082Z,98724.48
2022-11-21T14:24:40.300Z,98725.31
2022-11-21T14:25:54.429Z,98729.70
2022-11-21T14:26:56.705Z,98717.18
2022-11-21T14:27:58.776Z,98702.79
2022-11-21T14:30:37.559Z,98691.90
2022-11-21T14:31:47.288Z,98692.67
2022-11-21T14:32:54.066Z,98693.51
2022-11-21T14:33:55.918Z,98704.11
2022-11-21T14:35:13.474Z,98699.63
2022-11-21T14:36:20.508Z,98711.16
2022-11-21T14:37:22.687Z,98706.55
2022-11-21T14:38:25.458Z,98703.86
2022-11-21T14:39:38.024Z,98701.05
2022-11-21T14:40:33.019Z,98684.11
2022-11-21T14:41:36.530Z,98681.30
2022-11-21T14:42:39.726Z,98684.84
2022-11-21T14:43:41.890Z,98682.02
2022-11-21T14:44:44.726Z,98677.50
2022-11-21T14:45:50.205Z,98678.38
2022-11-21T14:47:13.912Z,98671.17
2022-11-21T14:48:16.084Z,98667.52
2022-11-21T14:49:20.382Z,98661.16
2022-11-21T14:50:31.414Z,98651.31
2022-11-21T14:51:33.536Z,98647.77
2022-11-21T14:52:36.087Z,98648.64
2022-11-21T14:53:40.282Z,98658.48
2022-11-21T14:55:22.414Z,98668.22
2022-11-21T14:55:59.951Z,98676.25
2022-11-21T14:57:00.633Z,98677.95
2022-11-21T14:58:02.973Z,98677.95
2022-11-21T14:59:05.819Z,98670.05
2022-11-21T15:00:36.096Z,98674.44
2022-11-21T15:02:38.660Z,98669.66
2022-11-21T15:03:41.286Z,98665.25
2022-11-21T15:04:44.936Z,98667.94
2022-11-21T15:06:01.987Z,98666.95
2022-11-21T15:06:52.113Z,98658.09
2022-11-21T15:08:05.556Z,98652.59
2022-11-21T15:10:32.102Z,98648.67
2022-11-21T15:12:44.660Z,98643.17
2022-11-21T15:14:12.218Z,98643.58
2022-11-21T15:16:13.826Z,98638.92
2022-11-21T15:17:17.870Z,98631.30
2022-11-21T15:18:27.889Z,98638.73
2022-11-21T15:19:29.112Z,98642.39
2022-11-21T15:20:31.866Z,98641.95
2022-11-21T15:21:34.416Z,98653.05
2022-11-21T15:22:37.342Z,98657.70
2022-11-21T15:23:39.387Z,98670.50
2022-11-21T15:24:43.165Z,98665.14
2022-11-21T15:25:47.325Z,98674.28
2022-11-21T15:26:49.844Z,98667.64
2022-11-21T15:28:01.869Z,98673.55
2022-11-21T15:29:07.994Z,98675.77
2022-11-21T15:30:15.090Z,98678.86
2022-11-21T15:31:18.130Z,98675.72
2022-11-21T15:32:20.408Z,98680.52
2022-11-21T15:33:22.660Z,98676.41
2022-11-21T15:34:35.837Z,98673.14
2022-11-21T15:35:53.421Z,98675.25
2022-11-21T15:37:15.500Z,98667.73
2022-11-21T15:39:35.739Z,98660.39
2022-11-21T15:40:38.216Z,98659.10
2022-11-21T15:41:41.231Z,98660.34
2022-11-21T15:42:43.678Z,98652.02
2022-11-21T15:45:20.058Z,98646.14
2022-11-21T15:46:27.777Z,98641.12
2022-11-21T15:47:30.375Z,98654.02
2022-11-21T15:48:32.457Z,98664.11
2022-11-21T15:49:35.029Z,98666.21
2022-11-21T15:50:37.500Z,98671.78
2022-11-21T15:52:54.676Z,98675.14
2022-11-21T15:53:57.821Z,98675.80
2022-11-21T15:55:00.099Z,98671.03
2022-11-21T15:56:04.079Z,98668.95
2022-11-21T15:57:08.248Z,98668.69
2022-11-21T15:58:13.224Z,98658.60
2022-11-21T15:59:15.346Z,98652.02
2022-11-21T16:00:18.937Z,98651.75
2022-11-21T16:01:22.565Z,98646.14
2022-11-21T16:02:25.828Z,98633.23
2022-11-21T16:03:28.198Z,98633.23
2022-11-21T16:04:30.269Z,98639.14
2022-11-21T16:05:32.383Z,98635.37
2022-11-21T16:06:34.636Z,98629.78
2022-11-21T16:07:37.825Z,98625.16
2022-11-21T16:08:40.320Z,98618.70
2022-11-21T16:09:42.809Z,98607.01
2022-11-21T16:10:44.866Z,98602.26
2022-11-21T16:11:47.389Z,98600.41
2022-11-21T16:12:49.466Z,98599.30
2022-11-21T16:13:52.580Z,98589.48
2022-11-21T16:14:54.920Z,98585.66
2022-11-21T16:16:01.162Z,98582.02
2022-11-21T16:17:06.298Z,98580.06
2022-11-21T16:18:08.934Z,98575.41
2022-11-21T16:19:11.106Z,98577.11
2022-11-21T16:20:14.807Z,98576.98
2022-11-21T16:21:18.428Z,98562.63
2022-11-21T16:22:20.738Z,98563.47
2022-11-21T16:23:23.637Z,98561.52
2022-11-21T16:24:25.631Z,98559.54
2022-11-21T16:25:28.207Z,98559.40
2022-11-21T16:26:30.527Z,98561.10
2022-11-21T16:27:32.693Z,98560.96
2022-11-21T16:28:35.163Z,98556.30
2022-11-21T16:29:37.466Z,98543.80
2022-11-21T16:30:39.827Z,98546.33
2022-11-21T16:31:41.949Z,98548.87
2022-11-21T16:32:45.097Z,98544.35
2022-11-21T16:33:47.231Z,98546.92
2022-11-21T16:34:49.827Z,98547.75
2022-11-21T16:35:51.885Z,98538.75
2022-11-21T16:36:54.825Z,98536.08
2022-11-21T16:37:57.162Z,98527.91
2022-11-21T16:39:07.810Z,98528.73
2022-11-21T16:40:06.540Z,98513.55